Time;durP1;ratioP1;P1;durP2;ratioP2;P2;SDS_P1;SDS_P2;PMS_P1;PMS_P2;Temp;Humidity;BMP_temperature;BMP_pressure;BME280_temperature;BME280_humidity;BME280_pressure;Samples;Min_cycle;Max_cycle;Signal;HPM_P1;HPM_P2
2021/01/01 00:00:49;;;;;;;24.25;19.80;;;3.00;92.70;;;;;;5096897;28;20032;-76
2021/01/01 00:03:16;;;;;;;24.75;20.58;;;2.90;92.70;;;;;;5076364;28;20457;-75
2021/01/01 00:05:43;;;;;;;26.58;20.80;;;3.00;92.80;;;;;;5078482;28;20356;-76
2021/01/01 00:08:09;;;;;;;31.90;20.83;;;3.00;92.80;;;;;;5092985;28;20055;-76
2021/01/01 00:10:35;;;;;;;27.95;21.88;;;3.00;92.80;;;;;;5095770;28;20035;-76
2021/01/01 00:13:01;;;;;;;29.50;22.17;;;3.00;92.80;;;;;;5089617;28;20024;-76
2021/01/01 00:15:26;;;;;;;28.10;20.90;;;3.00;92.70;;;;;;5095050;28;20036;-76
2021/01/01 00:17:52;;;;;;;28.00;20.90;;;3.00;92.80;;;;;;5085635;28;20056;-76
2021/01/01 00:20:18;;;;;;;33.33;27.70;;;3.00;92.90;;;;;;5088287;28;20043;-76
2021/01/01 00:22:43;;;;;;;32.65;26.65;;;3.00;92.80;;;;;;5093958;28;20039;-75
2021/01/01 00:25:10;;;;;;;30.40;24.67;;;3.00;92.90;;;;;;5094875;28;20035;-75
2021/01/01 00:27:36;;;;;;;28.30;23.58;;;2.90;92.90;;;;;;5091532;28;20040;-75
2021/01/01 00:30:05;;;;;;;25.77;21.63;;;2.90;92.90;;;;;;5087033;28;20094;-75
2021/01/01 00:32:30;;;;;;;26.98;22.25;;;3.00;92.90;;;;;;5087623;28;20032;-75
2021/01/01 00:34:56;;;;;;;26.42;22.10;;;3.00;92.90;;;;;;5091932;28;20109;-75
2021/01/01 00:37:22;;;;;;;27.15;21.55;;;3.00;92.80;;;;;;5092584;28;20471;-76
2021/01/01 00:39:47;;;;;;;27.75;22.23;;;3.00;92.80;;;;;;5080346;28;20028;-75
2021/01/01 00:42:13;;;;;;;25.88;20.83;;;3.00;92.80;;;;;;5074241;28;20081;-76
2021/01/01 00:44:40;;;;;;;27.65;22.73;;;3.00;92.70;;;;;;5091516;28;20040;-77
2021/01/01 00:47:09;;;;;;;26.48;22.33;;;3.00;92.70;;;;;;5096412;28;20056;-76
2021/01/01 00:49:35;;;;;;;24.83;21.58;;;3.00;92.70;;;;;;5078898;28;20055;-76
2021/01/01 00:52:04;;;;;;;27.45;22.10;;;3.00;92.70;;;;;;5089258;28;20054;-76
2021/01/01 00:54:31;;;;;;;25.17;19.92;;;2.90;92.60;;;;;;5096955;28;20112;-76
2021/01/01 00:56:57;;;;;;;27.85;21.58;;;2.90;92.60;;;;;;5088001;28;20070;-76
2021/01/01 00:59:23;;;;;;;28.63;21.30;;;2.90;92.50;;;;;;5101093;28;20035;-75
2021/01/01 01:01:48;;;;;;;26.40;21.92;;;2.90;92.50;;;;;;5093177;28;20119;-75
2021/01/01 01:04:14;;;;;;;29.02;22.30;;;2.90;92.50;;;;;;5080959;28;20028;-76
2021/01/01 01:06:40;;;;;;;28.70;21.00;;;2.90;92.50;;;;;;5098497;28;20928;-76
2021/01/01 01:09:05;;;;;;;24.73;21.92;;;2.80;92.40;;;;;;5095950;28;20027;-76
2021/01/01 01:11:32;;;;;;;26.08;20.10;;;2.80;92.50;;;;;;5101865;28;20430;-76
2021/01/01 01:13:59;;;;;;;26.92;21.05;;;2.80;92.30;;;;;;5101857;28;20035;-76
2021/01/01 01:16:27;;;;;;;24.58;20.05;;;2.80;92.30;;;;;;5093370;28;20036;-76
2021/01/01 01:18:53;;;;;;;27.88;20.92;;;2.80;92.20;;;;;;5093625;28;20020;-76
2021/01/01 01:21:20;;;;;;;27.80;21.95;;;2.80;92.00;;;;;;5075072;28;21653;-76
2021/01/01 01:23:46;;;;;;;28.55;21.27;;;2.80;92.00;;;;;;5092158;28;20039;-76
2021/01/01 01:26:11;;;;;;;26.98;21.05;;;2.70;91.80;;;;;;5094973;28;20438;-76
2021/01/01 01:28:37;;;;;;;24.75;20.60;;;2.80;91.70;;;;;;5089869;28;20036;-75
2021/01/01 01:31:03;;;;;;;26.42;19.40;;;2.70;91.60;;;;;;5099444;28;20058;-76
2021/01/01 01:33:28;;;;;;;24.77;19.35;;;2.80;91.60;;;;;;5092837;28;20043;-76
2021/01/01 01:35:54;;;;;;;27.73;19.38;;;2.80;91.50;;;;;;5075567;28;20032;-75
2021/01/01 01:38:20;;;;;;;21.98;17.35;;;2.70;91.50;;;;;;5092198;28;20458;-76
2021/01/01 01:40:45;;;;;;;22.55;15.93;;;2.70;91.50;;;;;;5105662;28;20059;-76
2021/01/01 01:43:11;;;;;;;18.85;13.25;;;2.70;91.50;;;;;;5096475;28;20084;-76
2021/01/01 01:45:37;;;;;;;18.70;13.00;;;2.70;91.50;;;;;;5102269;28;20035;-76
2021/01/01 01:48:04;;;;;;;17.95;12.68;;;2.70;91.50;;;;;;5088155;28;20436;-76
2021/01/01 01:50:31;;;;;;;16.83;11.77;;;2.70;91.50;;;;;;5099163;28;20488;-76
2021/01/01 01:52:57;;;;;;;15.45;11.10;;;2.60;91.60;;;;;;5096267;28;20115;-76
2021/01/01 01:55:23;;;;;;;14.27;10.63;;;2.60;91.50;;;;;;5082038;28;20071;-76
2021/01/01 01:57:49;;;;;;;16.98;11.18;;;2.60;91.70;;;;;;5092231;28;20072;-76
2021/01/01 02:01:01;;;;;;;14.50;10.75;;;2.60;91.70;;;;;;5094571;28;20036;-76
2021/01/01 02:03:02;;;;;;;15.63;10.50;;;2.60;91.80;;;;;;5082995;28;21901;-76
2021/01/01 02:05:28;;;;;;;13.88;9.43;;;2.60;91.70;;;;;;5095860;28;20398;-76
2021/01/01 02:07:54;;;;;;;14.48;9.50;;;2.50;91.80;;;;;;5100401;28;20105;-76
2021/01/01 02:10:20;;;;;;;14.95;9.50;;;2.40;91.90;;;;;;5099085;28;20034;-76
2021/01/01 02:12:48;;;;;;;14.25;9.45;;;2.40;91.90;;;;;;5099586;28;20054;-76
2021/01/01 02:15:15;;;;;;;14.35;9.68;;;2.40;92.00;;;;;;5099596;28;20127;-76
2021/01/01 02:17:41;;;;;;;16.00;9.80;;;2.40;92.10;;;;;;5096433;28;20035;-76
2021/01/01 02:20:11;;;;;;;12.40;9.25;;;2.30;92.10;;;;;;5091266;28;20028;-76
2021/01/01 02:22:40;;;;;;;14.35;9.15;;;2.30;92.10;;;;;;5081764;28;20044;-76
2021/01/01 02:25:08;;;;;;;13.27;8.73;;;2.30;92.20;;;;;;5092711;28;20032;-76
2021/01/01 02:27:34;;;;;;;13.15;9.02;;;2.20;92.30;;;;;;5091559;28;20047;-76
2021/01/01 02:30:00;;;;;;;11.50;8.75;;;2.20;92.40;;;;;;5095048;28;20511;-76
2021/01/01 02:32:25;;;;;;;11.40;8.15;;;2.20;92.40;;;;;;5077266;28;20035;-76
2021/01/01 02:34:51;;;;;;;12.18;8.27;;;2.20;92.50;;;;;;5092966;28;20036;-75
2021/01/01 02:37:17;;;;;;;13.25;8.70;;;2.20;92.60;;;;;;5095984;28;20489;-76
2021/01/01 02:39:43;;;;;;;13.90;8.40;;;2.20;92.70;;;;;;5096892;28;20111;-75
2021/01/01 02:42:09;;;;;;;13.05;9.15;;;2.20;92.70;;;;;;5101708;28;20503;-76
2021/01/01 02:44:35;;;;;;;13.65;8.77;;;2.20;92.70;;;;;;5091807;28;20028;-76
2021/01/01 02:47:02;;;;;;;15.18;9.15;;;2.30;92.70;;;;;;5086629;28;20743;-76
2021/01/01 02:49:29;;;;;;;14.27;9.32;;;2.30;92.60;;;;;;5083504;28;20024;-75
2021/01/01 02:51:54;;;;;;;12.50;8.75;;;2.40;92.50;;;;;;5093589;28;20067;-74
2021/01/01 02:54:20;;;;;;;14.50;8.70;;;2.40;92.50;;;;;;5090349;28;20071;-74
2021/01/01 02:56:46;;;;;;;13.77;8.38;;;2.40;92.40;;;;;;5089693;28;20588;-74
2021/01/01 02:59:12;;;;;;;14.70;9.05;;;2.40;92.50;;;;;;5088509;28;20028;-74
2021/01/01 03:01:38;;;;;;;12.25;7.95;;;2.30;92.40;;;;;;5102696;28;20154;-74
2021/01/01 03:04:04;;;;;;;13.55;8.90;;;2.40;92.40;;;;;;5100402;28;20020;-74
2021/01/01 03:06:29;;;;;;;13.68;8.73;;;2.40;92.40;;;;;;5091695;28;20455;-74
2021/01/01 03:08:55;;;;;;;13.77;8.88;;;2.30;92.40;;;;;;5089189;28;20036;-74
2021/01/01 03:11:21;;;;;;;14.55;8.25;;;2.40;92.40;;;;;;5095406;28;20020;-73
2021/01/01 03:13:46;;;;;;;12.77;9.15;;;2.40;92.30;;;;;;5088676;28;20097;-74
2021/01/01 03:16:12;;;;;;;13.15;8.55;;;2.40;92.30;;;;;;5095356;28;20036;-73
2021/01/01 03:18:38;;;;;;;13.13;8.70;;;2.40;92.20;;;;;;5097131;28;20179;-76
2021/01/01 03:21:04;;;;;;;12.57;8.90;;;2.40;92.30;;;;;;5097139;28;20047;-76
2021/01/01 03:23:30;;;;;;;12.98;8.32;;;2.40;92.30;;;;;;5095857;28;20028;-76
2021/01/01 03:25:55;;;;;;;15.52;9.70;;;2.40;92.30;;;;;;5092550;28;20356;-76
2021/01/01 03:28:21;;;;;;;12.75;8.93;;;2.40;92.20;;;;;;5089449;28;20032;-76
2021/01/01 03:30:47;;;;;;;13.95;9.68;;;2.40;92.20;;;;;;5088121;28;20540;-76
2021/01/01 03:33:13;;;;;;;13.15;8.95;;;2.40;92.20;;;;;;5091385;28;20066;-76
2021/01/01 03:35:39;;;;;;;14.15;9.75;;;2.40;92.20;;;;;;5098682;28;20063;-75
2021/01/01 03:38:05;;;;;;;13.45;9.60;;;2.40;92.20;;;;;;5094268;28;20090;-76
2021/01/01 03:40:31;;;;;;;17.63;10.10;;;2.40;92.30;;;;;;5096818;28;20482;-76
2021/01/01 03:42:57;;;;;;;15.75;10.80;;;2.40;92.30;;;;;;5090197;28;20105;-75
2021/01/01 03:45:22;;;;;;;15.90;10.20;;;2.40;92.40;;;;;;5095413;28;20028;-76
2021/01/01 03:47:48;;;;;;;15.57;10.30;;;2.40;92.40;;;;;;5073387;28;20092;-76
2021/01/01 03:50:14;;;;;;;15.38;11.10;;;2.40;92.40;;;;;;5099658;28;20051;-76
2021/01/01 03:52:39;;;;;;;16.05;10.65;;;2.40;92.50;;;;;;5091833;28;20045;-75
2021/01/01 03:55:05;;;;;;;16.63;10.77;;;2.40;92.50;;;;;;5090286;28;20420;-76
2021/01/01 03:57:31;;;;;;;17.00;11.27;;;2.40;92.50;;;;;;5088106;28;20388;-76
2021/01/01 03:59:57;;;;;;;16.50;11.32;;;2.40;92.50;;;;;;5091242;28;20043;-76
2021/01/01 04:02:22;;;;;;;17.83;11.68;;;2.40;92.50;;;;;;5088285;28;20032;-76
2021/01/01 04:04:48;;;;;;;16.85;11.75;;;2.40;92.50;;;;;;5090296;28;20032;-76
2021/01/01 04:07:14;;;;;;;16.65;11.82;;;2.40;92.50;;;;;;5085754;28;20028;-77
2021/01/01 04:09:40;;;;;;;18.83;11.02;;;2.40;92.60;;;;;;5088958;28;20028;-76
2021/01/01 04:12:06;;;;;;;17.35;12.30;;;2.40;92.60;;;;;;5091157;28;20054;-76
2021/01/01 04:14:31;;;;;;;17.27;11.63;;;2.40;92.60;;;;;;5093357;28;20095;-76
2021/01/01 04:16:57;;;;;;;16.40;11.35;;;2.40;92.50;;;;;;5094569;28;20142;-76
2021/01/01 04:19:23;;;;;;;16.65;11.27;;;2.40;92.60;;;;;;5095797;28;20089;-76
2021/01/01 04:21:49;;;;;;;14.90;11.20;;;2.40;92.60;;;;;;5095360;28;20032;-76
2021/01/01 04:24:16;;;;;;;16.30;11.70;;;2.40;92.60;;;;;;5087594;28;20031;-75
2021/01/01 04:26:43;;;;;;;15.98;11.95;;;2.40;92.60;;;;;;5094077;28;20099;-76
2021/01/01 04:29:09;;;;;;;18.42;12.15;;;2.40;92.60;;;;;;5098899;28;20027;-76
2021/01/01 04:31:36;;;;;;;16.63;12.32;;;2.40;92.60;;;;;;5088013;28;20067;-75
2021/01/01 04:34:03;;;;;;;16.15;11.15;;;2.40;92.60;;;;;;5092301;28;20020;-74
2021/01/01 04:36:29;;;;;;;17.10;11.40;;;2.40;92.60;;;;;;5093563;28;20046;-74
2021/01/01 04:38:54;;;;;;;15.68;11.75;;;2.40;92.50;;;;;;5097411;28;20406;-74
2021/01/01 04:41:21;;;;;;;15.73;11.80;;;2.40;92.30;;;;;;5094045;28;20433;-74
2021/01/01 04:43:51;;;;;;;17.35;11.02;;;2.40;92.20;;;;;;5098195;28;20489;-74
2021/01/01 04:46:16;;;;;;;16.80;10.98;;;2.40;92.10;;;;;;5091208;28;20020;-73
2021/01/01 04:48:46;;;;;;;17.85;12.23;;;2.40;92.10;;;;;;5101431;28;20085;-74
2021/01/01 04:51:12;;;;;;;19.77;12.65;;;2.40;92.20;;;;;;5096232;28;20450;-75
2021/01/01 04:53:39;;;;;;;16.38;11.57;;;2.40;92.20;;;;;;5094118;28;20086;-74
2021/01/01 04:56:06;;;;;;;19.20;12.68;;;2.40;92.20;;;;;;5103570;28;20470;-74
2021/01/01 04:58:31;;;;;;;18.05;12.88;;;2.40;92.20;;;;;;5094933;28;20032;-76
2021/01/01 05:00:57;;;;;;;19.27;13.23;;;2.50;92.20;;;;;;5102733;28;20037;-76
2021/01/01 05:03:23;;;;;;;17.52;13.25;;;2.50;92.30;;;;;;5072474;28;20040;-74
2021/01/01 05:05:49;;;;;;;17.50;12.55;;;2.50;92.30;;;;;;5095287;28;20466;-74
2021/01/01 05:08:16;;;;;;;19.40;12.77;;;2.50;92.30;;;;;;5097732;28;20062;-74
2021/01/01 05:10:43;;;;;;;19.52;13.80;;;2.60;92.40;;;;;;5096951;28;20532;-74
2021/01/01 05:13:19;;;;;;;19.30;13.82;;;2.60;92.40;;;;;;5092274;28;20035;-74
2021/01/01 05:15:48;;;;;;;19.98;12.88;;;2.60;92.40;;;;;;5095844;28;20115;-75
2021/01/01 05:18:17;;;;;;;17.45;12.70;;;2.60;92.40;;;;;;5082119;28;20426;-74
2021/01/01 05:20:43;;;;;;;16.42;13.32;;;2.60;92.50;;;;;;5098483;28;20077;-74
2021/01/01 05:23:41;;;;;;;17.75;12.90;;;2.60;92.40;;;;;;5093487;28;20139;-74
2021/01/01 05:26:14;;;;;;;16.60;12.52;;;2.60;92.40;;;;;;5083803;28;20161;-73
2021/01/01 05:28:49;;;;;;;16.73;12.98;;;2.60;92.40;;;;;;5077590;28;20032;-73
2021/01/01 05:31:22;;;;;;;;;;;2.60;92.40;;;;;;5096437;28;20480;-74
2021/01/01 05:33:51;;;;;;;21.17;14.75;;;2.60;92.40;;;;;;5094734;28;19911;-74
2021/01/01 05:36:36;;;;;;;20.55;14.80;;;2.60;92.50;;;;;;5093734;28;20529;-74
2021/01/01 05:39:23;;;;;;;20.55;14.63;;;2.60;92.40;;;;;;5104381;28;20061;-76
2021/01/01 05:41:53;;;;;;;20.15;14.77;;;2.60;92.30;;;;;;5106149;28;20032;-76
2021/01/01 05:44:32;;;;;;;20.85;15.00;;;2.60;92.20;;;;;;5097474;28;20024;-76
2021/01/01 05:47:09;;;;;;;19.15;14.75;;;2.60;92.20;;;;;;5095823;28;20055;-76
2021/01/01 05:49:37;;;;;;;21.17;15.30;;;2.60;92.20;;;;;;5091790;28;20036;-76
2021/01/01 05:52:12;;;;;;;20.10;14.68;;;2.60;92.20;;;;;;5081783;28;20032;-76
2021/01/01 05:54:41;;;;;;;21.35;16.25;;;2.60;92.30;;;;;;5094646;28;20044;-76
2021/01/01 05:57:08;;;;;;;22.30;15.82;;;2.60;92.30;;;;;;5091729;28;20101;-76
2021/01/01 05:59:44;;;;;;;21.73;15.48;;;2.60;92.40;;;;;;5092688;28;20064;-75
2021/01/01 06:02:10;;;;;;;21.27;16.75;;;2.60;92.50;;;;;;5095850;28;20509;-76
2021/01/01 06:04:37;;;;;;;21.98;15.95;;;2.60;92.60;;;;;;5093880;28;20089;-76
2021/01/01 06:07:05;;;;;;;22.38;17.13;;;2.60;92.60;;;;;;5088022;28;20347;-77
2021/01/01 06:09:33;;;;;;;23.05;17.65;;;2.60;92.60;;;;;;5098402;28;20040;-76
2021/01/01 06:12:01;;;;;;;22.75;16.77;;;2.60;92.60;;;;;;5095498;28;20028;-76
2021/01/01 06:14:41;;;;;;;22.15;17.38;;;2.60;92.60;;;;;;5092322;28;20107;-76
2021/01/01 06:17:09;;;;;;;24.13;16.77;;;2.60;92.70;;;;;;5093744;28;20816;-76
2021/01/01 06:19:51;;;;;;;21.85;17.23;;;2.60;92.70;;;;;;5102212;28;20043;-76
2021/01/01 06:22:24;;;;;;;23.35;17.70;;;2.60;92.70;;;;;;5099489;28;20026;-77
2021/01/01 06:24:52;;;;;;;24.23;18.58;;;2.60;92.70;;;;;;5095210;28;20067;-76
2021/01/01 06:27:19;;;;;;;25.38;18.73;;;2.60;92.70;;;;;;5074476;28;20110;-77
2021/01/01 06:29:50;;;;;;;25.88;19.13;;;2.60;92.50;;;;;;5091228;28;20051;-76
2021/01/01 06:32:20;;;;;;;22.27;17.75;;;2.50;92.60;;;;;;5100471;28;20034;-76
2021/01/01 06:34:45;;;;;;;24.17;17.60;;;2.60;92.60;;;;;;5096357;28;20035;-74
2021/01/01 06:37:36;;;;;;;22.42;17.70;;;2.50;92.60;;;;;;5098936;28;20051;-77
2021/01/01 06:40:07;;;;;;;23.95;18.02;;;2.50;92.60;;;;;;5090428;28;20024;-77
2021/01/01 06:42:52;;;;;;;24.58;17.60;;;2.50;92.50;;;;;;5096388;28;20511;-76
2021/01/01 06:45:36;;;;;;;23.50;18.58;;;2.50;92.60;;;;;;5096557;28;20110;-77
2021/01/01 06:48:04;;;;;;;26.02;18.77;;;2.50;92.50;;;;;;5088562;28;20074;-77
2021/01/01 06:50:32;;;;;;;27.42;18.50;;;2.40;92.50;;;;;;5101609;28;20028;-76
2021/01/01 06:53:05;;;;;;;24.95;17.85;;;2.40;92.50;;;;;;5092677;28;20036;-76
2021/01/01 06:55:40;;;;;;;21.98;17.90;;;2.40;92.50;;;;;;5092601;28;20047;-76
2021/01/01 06:58:06;;;;;;;22.40;17.38;;;2.40;92.50;;;;;;5074762;28;20378;-76
2021/01/01 07:00:44;;;;;;;25.15;18.30;;;2.40;92.40;;;;;;5090025;28;20031;-76
2021/01/01 07:03:32;;;;;;;23.85;18.30;;;2.30;92.30;;;;;;5092785;28;20545;-76
2021/01/01 07:06:01;;;;;;;24.00;17.92;;;2.30;92.30;;;;;;5095209;28;20039;-76
2021/01/01 07:08:39;;;;;;;23.75;17.45;;;2.20;92.20;;;;;;5073210;28;20416;-76
2021/01/01 07:11:25;;;;;;;25.05;19.10;;;2.20;92.30;;;;;;5074097;28;20421;-77
2021/01/01 07:13:53;;;;;;;23.98;17.95;;;2.20;92.30;;;;;;5084955;28;20047;-76
2021/01/01 07:16:23;;;;;;;21.90;17.65;;;2.10;92.30;;;;;;5093415;28;20073;-77
2021/01/01 07:18:50;;;;;;;23.15;18.60;;;2.10;92.40;;;;;;5091613;28;20058;-76
2021/01/01 07:21:17;;;;;;;25.55;17.80;;;2.00;92.40;;;;;;5091215;28;20036;-76
2021/01/01 07:23:44;;;;;;;24.33;18.08;;;1.90;92.40;;;;;;5095069;28;20043;-76
2021/01/01 07:26:10;;;;;;;24.27;18.10;;;1.90;92.40;;;;;;5091934;28;20533;-76
2021/01/01 07:28:41;;;;;;;22.88;17.25;;;1.80;92.40;;;;;;5092184;28;20066;-76
2021/01/01 07:31:07;;;;;;;22.15;17.42;;;1.80;92.50;;;;;;5089923;28;20101;-76
2021/01/01 07:33:34;;;;;;;27.13;17.95;;;1.80;92.50;;;;;;5093078;28;20061;-76
2021/01/01 07:36:02;;;;;;;23.48;17.70;;;1.70;92.60;;;;;;5105393;28;20040;-76
2021/01/01 07:38:31;;;;;;;28.05;18.98;;;1.60;92.60;;;;;;5099279;28;20055;-76
2021/01/01 07:41:00;;;;;;;27.98;19.50;;;1.60;92.70;;;;;;5089593;28;20108;-76
2021/01/01 07:43:26;;;;;;;29.95;19.98;;;1.60;92.70;;;;;;5100789;28;20035;-76
2021/01/01 07:46:00;;;;;;;29.52;20.90;;;1.60;92.80;;;;;;5084278;28;20039;-76
2021/01/01 07:48:26;;;;;;;29.48;19.85;;;1.60;92.80;;;;;;5087771;28;20474;-76
2021/01/01 07:50:56;;;;;;;33.15;22.80;;;1.60;92.80;;;;;;5090734;28;20123;-76
2021/01/01 07:53:22;;;;;;;33.55;23.90;;;1.60;92.80;;;;;;5089288;28;20028;-77
2021/01/01 07:55:47;;;;;;;40.58;27.65;;;1.60;92.80;;;;;;5095632;28;20459;-76
2021/01/01 07:58:14;;;;;;;38.53;26.52;;;1.60;92.70;;;;;;5094295;28;20447;-76
2021/01/01 08:00:42;;;;;;;33.33;23.70;;;1.60;92.80;;;;;;5076150;28;20417;-76
2021/01/01 08:03:09;;;;;;;30.02;22.63;;;1.60;92.70;;;;;;5075116;28;20056;-76
2021/01/01 08:05:35;;;;;;;31.25;21.35;;;1.70;92.70;;;;;;5097585;28;20039;-76
2021/01/01 08:08:16;;;;;;;32.65;21.38;;;1.70;92.70;;;;;;5087513;28;20470;-75
2021/01/01 08:10:43;;;;;;;29.83;20.67;;;1.70;92.70;;;;;;5090407;28;20044;-75
2021/01/01 08:13:20;;;;;;;28.02;20.17;;;1.70;92.60;;;;;;5097765;28;20073;-74
2021/01/01 08:15:47;;;;;;;28.67;20.08;;;1.80;92.60;;;;;;5098194;28;20047;-74
2021/01/01 08:18:21;;;;;;;27.58;19.65;;;1.80;92.50;;;;;;5079611;28;20056;-75
2021/01/01 08:20:57;;;;;;;29.58;19.95;;;1.80;92.50;;;;;;5099432;28;20556;-74
2021/01/01 08:23:24;;;;;;;30.13;22.08;;;1.90;92.40;;;;;;5082839;28;20031;-74
2021/01/01 08:25:51;;;;;;;30.85;21.63;;;2.00;92.40;;;;;;5094411;28;20593;-74
2021/01/01 08:28:25;;;;;;;29.52;21.30;;;2.00;92.30;;;;;;5104561;28;20418;-72
2021/01/01 08:31:00;;;;;;;31.50;21.23;;;2.10;92.30;;;;;;5095467;28;20479;-73
2021/01/01 08:33:29;;;;;;;28.23;20.10;;;2.10;92.00;;;;;;5101403;28;20039;-72
2021/01/01 08:36:28;;;;;;;27.85;19.40;;;2.10;91.80;;;;;;5098061;28;20056;-72
2021/01/01 08:39:08;;;;;;;28.40;19.30;;;2.10;91.70;;;;;;5091123;28;20059;-73
2021/01/01 08:41:45;;;;;;;26.60;19.92;;;2.10;91.40;;;;;;5096863;28;20113;-74
2021/01/01 08:44:12;;;;;;;28.95;19.88;;;2.00;91.40;;;;;;5100810;28;20108;-73
2021/01/01 08:46:38;;;;;;;26.85;19.60;;;2.00;91.30;;;;;;5100284;28;20032;-73
2021/01/01 08:49:20;;;;;;;24.15;18.40;;;2.00;91.20;;;;;;5100263;28;20031;-73
2021/01/01 08:51:47;;;;;;;25.70;18.73;;;2.00;91.20;;;;;;5096203;28;20035;-76
2021/01/01 08:54:23;;;;;;;25.95;18.30;;;1.90;91.00;;;;;;5096867;28;20028;-74
2021/01/01 08:56:56;;;;;;;24.73;18.33;;;1.90;91.00;;;;;;5094223;28;20040;-74
2021/01/01 08:59:22;;;;;;;27.70;19.92;;;1.90;90.90;;;;;;5090214;28;20471;-75
2021/01/01 09:01:48;;;;;;;28.80;18.83;;;1.80;91.00;;;;;;5091519;28;20166;-76
2021/01/01 09:04:15;;;;;;;28.35;19.08;;;1.80;91.00;;;;;;5099402;28;20035;-74
2021/01/01 09:06:56;;;;;;;25.80;18.00;;;1.80;91.00;;;;;;5102250;28;20031;-74
2021/01/01 09:09:29;;;;;;;26.88;18.30;;;1.80;90.90;;;;;;5099725;28;20458;-74
2021/01/01 09:12:19;;;;;;;25.38;17.33;;;1.80;90.90;;;;;;5091622;28;20474;-75
2021/01/01 09:14:55;;;;;;;27.90;18.67;;;1.80;91.00;;;;;;5078641;28;20032;-74
2021/01/01 09:17:25;;;;;;;28.13;19.00;;;1.90;90.90;;;;;;5090758;28;20044;-73
2021/01/01 09:20:05;;;;;;;24.70;17.77;;;1.80;90.70;;;;;;5078444;28;20028;-74
2021/01/01 09:22:32;;;;;;;29.10;19.15;;;1.90;90.60;;;;;;5086432;28;20032;-75
2021/01/01 09:25:20;;;;;;;30.85;19.38;;;1.90;90.60;;;;;;5085653;28;20048;-75
2021/01/01 09:27:46;;;;;;;26.58;17.77;;;1.90;90.50;;;;;;5076588;28;20619;-75
2021/01/01 09:30:15;;;;;;;26.67;18.23;;;1.80;90.40;;;;;;5076955;28;20028;-76
2021/01/01 09:32:49;;;;;;;26.23;18.80;;;1.90;90.40;;;;;;5091785;28;20030;-75
2021/01/01 09:35:15;;;;;;;27.90;18.90;;;1.90;90.30;;;;;;5090638;28;20143;-74
2021/01/01 09:37:52;;;;;;;28.13;18.65;;;2.00;90.30;;;;;;5092023;28;20105;-74
2021/01/01 09:40:20;;;;;;;26.00;18.80;;;2.00;90.40;;;;;;5092964;28;20032;-74
2021/01/01 09:42:45;;;;;;;29.40;19.45;;;2.00;90.30;;;;;;5077689;28;20046;-73
2021/01/01 09:45:12;;;;;;;29.08;20.17;;;2.10;90.30;;;;;;5089169;28;20035;-71
2021/01/01 09:47:38;;;;;;;27.38;19.25;;;2.10;90.30;;;;;;5088201;28;20062;-74
2021/01/01 09:50:05;;;;;;;29.20;20.20;;;2.20;90.10;;;;;;5089265;28;20035;-74
2021/01/01 09:52:31;;;;;;;28.95;21.00;;;2.30;89.80;;;;;;5085500;28;20111;-73
2021/01/01 09:54:56;;;;;;;27.65;20.05;;;2.40;89.50;;;;;;5088608;28;20225;-75
2021/01/01 09:57:22;;;;;;;26.17;19.50;;;2.60;89.20;;;;;;5086879;28;20510;-74
2021/01/01 09:59:47;;;;;;;27.70;18.92;;;2.80;88.70;;;;;;5085471;28;20035;-73
2021/01/01 10:02:13;;;;;;;26.50;18.75;;;2.90;88.30;;;;;;5091131;28;20028;-74
2021/01/01 10:04:39;;;;;;;29.83;19.55;;;3.10;88.00;;;;;;5090304;28;20040;-73
2021/01/01 10:07:04;;;;;;;27.73;18.50;;;3.20;87.60;;;;;;5086201;28;20114;-74
2021/01/01 10:09:30;;;;;;;24.20;17.67;;;3.30;86.70;;;;;;5089134;28;20027;-74
2021/01/01 10:11:57;;;;;;;25.17;17.25;;;3.40;86.40;;;;;;5076625;28;20036;-74
2021/01/01 10:14:23;;;;;;;23.50;16.23;;;3.40;86.70;;;;;;5096495;28;20042;-76
2021/01/01 10:16:49;;;;;;;26.00;18.65;;;3.40;86.80;;;;;;5088020;28;20406;-73
2021/01/01 10:19:16;;;;;;;26.00;18.55;;;3.40;86.30;;;;;;5089093;28;20073;-73
2021/01/01 10:21:42;;;;;;;27.75;19.20;;;3.40;86.70;;;;;;5073037;28;20066;-75
2021/01/01 10:24:08;;;;;;;26.77;19.45;;;3.50;87.20;;;;;;5088304;28;20027;-74
2021/01/01 10:26:33;;;;;;;28.33;19.10;;;3.60;86.60;;;;;;5089793;28;20058;-73
2021/01/01 10:28:59;;;;;;;26.13;18.80;;;3.70;86.40;;;;;;5086547;28;20024;-74
2021/01/01 10:31:25;;;;;;;27.20;18.80;;;3.80;86.40;;;;;;5088986;28;20044;-73
2021/01/01 10:33:50;;;;;;;25.67;18.30;;;3.90;86.40;;;;;;5081863;28;20039;-76
2021/01/01 10:36:16;;;;;;;27.67;19.10;;;4.00;86.30;;;;;;5075424;28;20036;-74
2021/01/01 10:38:42;;;;;;;25.55;18.23;;;4.00;86.10;;;;;;5082136;28;20104;-75
2021/01/01 10:41:14;;;;;;;26.40;17.83;;;4.10;86.40;;;;;;5076537;28;20094;-75
2021/01/01 10:43:41;;;;;;;26.23;18.20;;;4.20;85.70;;;;;;5079773;28;20059;-73
2021/01/01 10:46:07;;;;;;;27.17;17.92;;;4.30;85.60;;;;;;5077699;28;20386;-73
2021/01/01 10:48:32;;;;;;;26.73;17.48;;;4.40;85.40;;;;;;5083775;28;20066;-75
2021/01/01 10:50:58;;;;;;;27.50;18.05;;;4.50;85.40;;;;;;5076880;28;20127;-73
2021/01/01 10:53:24;;;;;;;24.38;17.17;;;4.50;85.50;;;;;;5071807;28;20451;-74
2021/01/01 10:55:50;;;;;;;26.30;17.92;;;4.60;85.50;;;;;;5072968;28;20558;-75
2021/01/01 10:58:25;;;;;;;23.67;16.88;;;4.80;85.20;;;;;;5076664;28;20366;-73
2021/01/01 11:00:54;;;;;;;;;;;4.90;84.70;;;;;;5075239;28;20035;-75
2021/01/01 11:03:19;;;;;;;24.17;16.38;;;4.90;84.60;;;;;;5085118;28;19907;-72
2021/01/01 11:05:45;;;;;;;22.30;15.88;;;5.00;84.80;;;;;;5083712;28;20398;-73
2021/01/01 11:08:11;;;;;;;22.92;16.50;;;5.10;84.70;;;;;;5090966;28;20118;-72
2021/01/01 11:10:37;;;;;;;23.42;15.57;;;5.20;84.40;;;;;;5088940;28;20126;-73
2021/01/01 11:13:04;;;;;;;21.65;15.52;;;5.30;84.20;;;;;;5088708;28;20035;-73
2021/01/01 12:20:06;;;;;;;14.02;9.25;;;5.70;79.30;;;;;;5087307;28;20069;-73
2021/01/01 12:25:13;;;;;;;13.60;9.52;;;5.70;78.80;;;;;;5096166;28;20073;-75
2021/01/01 12:27:39;;;;;;;16.20;10.45;;;5.70;78.70;;;;;;5091813;28;20430;-73
2021/01/01 12:30:09;;;;;;;15.75;11.05;;;5.70;79.60;;;;;;5094156;28;20466;-73
2021/01/01 12:32:37;;;;;;;14.10;10.18;;;5.70;80.00;;;;;;5091413;28;20040;-73
2021/01/01 12:35:04;;;;;;;15.82;10.48;;;5.80;79.60;;;;;;5081471;28;20082;-74
2021/01/01 12:37:29;;;;;;;18.45;11.40;;;5.80;79.00;;;;;;5075469;28;20047;-74
2021/01/01 12:39:55;;;;;;;15.68;10.40;;;5.80;79.20;;;;;;5086280;28;20455;-74
2021/01/01 12:42:21;;;;;;;18.20;10.45;;;5.80;77.50;;;;;;5091861;28;20113;-73
2021/01/01 12:44:47;;;;;;;15.55;10.00;;;5.80;77.80;;;;;;5082531;28;20036;-74
2021/01/01 12:47:13;;;;;;;17.42;11.35;;;6.00;78.30;;;;;;5086914;28;20061;-75
2021/01/01 12:49:39;;;;;;;15.23;9.88;;;6.00;78.50;;;;;;5087680;28;20089;-74
2021/01/01 12:52:06;;;;;;;15.50;10.63;;;5.90;78.80;;;;;;5072329;28;20404;-74
2021/01/01 12:54:31;;;;;;;13.80;10.27;;;6.00;78.40;;;;;;5069131;28;20454;-76
2021/01/01 12:56:57;;;;;;;12.98;9.65;;;5.90;78.10;;;;;;5077953;28;20126;-74
2021/01/01 12:59:22;;;;;;;14.60;10.30;;;6.10;78.00;;;;;;5092995;28;20062;-74
2021/01/01 13:01:48;;;;;;;15.05;10.40;;;6.10;78.70;;;;;;5094312;28;20040;-74
2021/01/01 13:04:14;;;;;;;15.60;9.98;;;6.20;77.90;;;;;;5087957;28;20036;-74
2021/01/01 13:06:39;;;;;;;15.18;9.85;;;6.20;78.60;;;;;;5095858;28;20047;-76
2021/01/01 13:09:05;;;;;;;16.67;10.82;;;6.20;78.60;;;;;;5092057;28;20036;-74
2021/01/01 13:11:31;;;;;;;18.77;13.02;;;6.20;78.30;;;;;;5094303;28;20626;-75
2021/01/01 13:13:58;;;;;;;17.52;11.55;;;6.00;79.00;;;;;;5090600;28;20043;-77
2021/01/01 13:16:26;;;;;;;20.98;12.73;;;5.90;79.40;;;;;;5091902;28;20036;-75
2021/01/01 13:18:52;;;;;;;17.33;11.75;;;5.80;79.80;;;;;;5090614;28;20062;-72
2021/01/01 13:21:35;;;;;;;18.52;11.20;;;5.80;80.00;;;;;;5091740;28;20043;-77
2021/01/01 13:24:01;;;;;;;17.60;12.05;;;5.70;80.00;;;;;;5072352;28;20040;-75
2021/01/01 13:26:28;;;;;;;18.48;12.10;;;5.60;80.40;;;;;;5088363;28;20451;-74
2021/01/01 13:28:55;;;;;;;18.58;12.52;;;5.60;80.30;;;;;;5090436;28;20024;-74
2021/01/01 13:31:22;;;;;;;19.88;13.07;;;5.60;80.30;;;;;;5084522;28;20040;-75
2021/01/01 13:33:52;;;;;;;20.00;13.23;;;5.60;80.90;;;;;;5093727;28;20028;-75
2021/01/01 13:36:20;;;;;;;19.08;13.45;;;5.60;81.10;;;;;;5087988;28;20105;-73
2021/01/01 13:38:47;;;;;;;18.52;13.25;;;5.40;81.20;;;;;;5093359;28;20036;-74
2021/01/01 13:41:13;;;;;;;19.65;12.75;;;5.50;81.40;;;;;;5094272;28;20089;-76
2021/01/01 13:43:44;;;;;;;20.42;13.10;;;5.50;81.20;;;;;;5092570;28;20156;-74
2021/01/01 13:46:18;;;;;;;20.35;12.68;;;5.50;80.50;;;;;;5093903;28;20032;-73
2021/01/01 13:48:44;;;;;;;19.45;13.55;;;5.40;81.10;;;;;;5089923;28;20024;-75
2021/01/01 13:51:09;;;;;;;21.55;14.82;;;5.40;81.50;;;;;;5090788;28;20497;-74